Airport View

Enter AWOS ICAO identifier for current METAR.

ex. KFNL

K20V 191254Z AUTO 00000KT 10SM SCT080 00/M02 A3000 RMK AO2

19 May 2019 13:03

Frequency: 118.425

Phone: 970-724-9659

Other Area AWOS: KGNB - KC07 - K0CO - KEGE

TAF KEGE 191131Z 1912/2012 VRB05KT P6SM SCT080 BKN140 FM191800 19009KT P6SM VCSH SCT050 OVC070 FM200300 14005KT P6SM VCSH SCT050 BKN100 FM200600 20005KT P6SM SCT060 OVC070